CYYD

Smithers Airport

Smithers, , Canada
METAR CYYD 230700Z AUTO 00000KT 9SM OVC055 M09/M11 A3006 RMK SLP218
Observed Flight Rules
Feb-23 @ 07:00 UTC (an hour ago) Visual Flight Rules
Wind Visibility Clouds
Calm 9 miles
  • Overcast at 5,500' AGL
Temperatures Readings
Current -9°C / 16°F
Dewpoint -11°C / 12°F
Humidity 86%
Altimeter 30.06" Hg
Pressure 1021.8 hPa
Elevation 523
METAR CYYD 230700Z AUTO 00000KT 9SM OVC055 M09/M11 A3006 RMK SLP218
Observed Flight Rules
Feb-23 @ 07:00 UTC
(an hour ago)
VFR
Wind Visibility
Calm 9 miles
Clouds
  • Overcast at 5,500' AGL
Temperature Dewpoint
-9°C / 16°F -11°C / 12°F
Humidity Altimeter Pressure
86% 30.06" Hg 1021.8 hPa